Time;durP1;ratioP1;P1;durP2;ratioP2;P2;SDS_P1;SDS_P2;PMS_P1;PMS_P2;Temp;Humidity;BMP_temperature;BMP_pressure;BME280_temperature;BME280_humidity;BME280_pressure;Samples;Min_cycle;Max_cycle;Signal;HPM_P1;HPM_P2
2021/07/01 00:01:13;;;;;;;2.80;2.45;;;21.00;71.10;;;;;;5095213;28;20055;-52
2021/07/01 00:03:40;;;;;;;3.05;2.63;;;21.00;71.10;;;;;;5095161;28;20499;-45
2021/07/01 00:06:06;;;;;;;3.55;2.30;;;21.00;71.20;;;;;;5093994;28;20048;-41
2021/07/01 00:08:31;;;;;;;2.67;2.10;;;21.00;71.10;;;;;;5102396;28;20067;-47
2021/07/01 00:10:57;;;;;;;2.70;2.20;;;21.00;71.10;;;;;;5094182;28;20123;-37
2021/07/01 00:13:23;;;;;;;3.20;2.58;;;21.00;71.20;;;;;;5103316;28;20533;-37
2021/07/01 00:15:49;;;;;;;2.80;2.10;;;21.00;71.20;;;;;;5111964;28;20062;-48
2021/07/01 00:18:15;;;;;;;3.13;2.20;;;21.00;71.10;;;;;;5093835;28;20052;-49
2021/07/01 00:20:41;;;;;;;2.90;2.33;;;21.00;71.20;;;;;;5093694;28;20050;-40
2021/07/01 00:23:07;;;;;;;3.40;2.42;;;21.00;71.20;;;;;;5114361;28;20047;-44
2021/07/01 00:25:32;;;;;;;2.47;2.28;;;21.00;71.20;;;;;;5112489;28;20051;-41
2021/07/01 00:27:59;;;;;;;3.65;2.17;;;21.00;71.20;;;;;;5113962;28;20144;-43
2021/07/01 00:30:25;;;;;;;2.90;2.45;;;20.90;71.10;;;;;;5102426;28;20536;-47
2021/07/01 00:32:52;;;;;;;2.75;2.47;;;20.90;71.20;;;;;;5106034;28;20097;-52
2021/07/01 00:35:18;;;;;;;3.53;2.53;;;21.00;71.20;;;;;;5112167;28;20055;-46
2021/07/01 00:37:45;;;;;;;3.78;2.30;;;21.00;71.20;;;;;;5112984;28;20044;-45
2021/07/01 00:40:12;;;;;;;2.30;2.00;;;21.00;71.20;;;;;;5112926;28;20051;-44
2021/07/01 00:42:38;;;;;;;3.33;2.30;;;21.00;71.10;;;;;;5113571;28;20063;-42
2021/07/01 00:45:06;;;;;;;2.78;2.30;;;21.00;71.20;;;;;;5099422;28;20457;-41
2021/07/01 00:47:32;;;;;;;3.03;2.63;;;20.90;71.10;;;;;;5092290;28;20040;-42
2021/07/01 00:50:02;;;;;;;2.25;2.05;;;21.00;71.20;;;;;;5097195;28;20102;-41
2021/07/01 00:52:27;;;;;;;2.70;2.10;;;21.00;71.20;;;;;;5111552;28;20054;-41
2021/07/01 00:54:53;;;;;;;2.60;2.22;;;21.00;71.20;;;;;;5113833;28;20138;-50
2021/07/01 00:57:19;;;;;;;2.60;2.22;;;20.90;71.20;;;;;;5112239;28;20458;-51
2021/07/01 00:59:45;;;;;;;2.85;2.55;;;21.00;71.20;;;;;;5113828;28;20058;-49
2021/07/01 01:02:10;;;;;;;2.33;2.13;;;21.00;71.20;;;;;;5112758;28;20118;-42
2021/07/01 01:04:36;;;;;;;2.97;2.33;;;20.90;71.20;;;;;;5113660;28;20096;-39
2021/07/01 01:07:03;;;;;;;3.63;2.58;;;20.90;71.20;;;;;;5101092;28;20067;-44
2021/07/01 01:09:29;;;;;;;2.72;2.00;;;21.00;71.30;;;;;;5101913;28;20044;-43
2021/07/01 01:11:54;;;;;;;2.65;2.38;;;20.90;71.20;;;;;;5114170;28;20045;-40
2021/07/01 01:14:20;;;;;;;2.30;2.10;;;21.00;71.20;;;;;;5111714;28;20059;-43
2021/07/01 01:16:46;;;;;;;2.88;2.40;;;20.90;71.20;;;;;;5113185;28;20047;-41
2021/07/01 01:19:12;;;;;;;3.58;2.47;;;20.90;71.20;;;;;;5111229;28;20047;-41
2021/07/01 01:21:37;;;;;;;2.70;2.42;;;20.90;71.20;;;;;;5112045;28;20455;-44
2021/07/01 01:24:04;;;;;;;2.90;2.60;;;20.90;71.20;;;;;;5113377;28;20043;-42
2021/07/01 01:26:31;;;;;;;2.78;2.20;;;20.90;71.20;;;;;;5093264;28;20093;-42
2021/07/01 01:28:57;;;;;;;2.90;2.60;;;20.90;71.20;;;;;;5093803;28;20114;-40
2021/07/01 01:31:23;;;;;;;2.72;2.50;;;20.90;71.20;;;;;;5107966;28;20048;-40
2021/07/01 01:33:55;;;;;;;2.75;2.10;;;20.90;71.20;;;;;;5112866;28;20051;-39
2021/07/01 01:36:22;;;;;;;2.55;2.13;;;20.90;71.20;;;;;;5097494;28;20054;-41
2021/07/01 01:38:48;;;;;;;4.53;2.58;;;20.90;71.20;;;;;;5098881;28;20064;-40
2021/07/01 01:41:13;;;;;;;2.88;2.55;;;20.90;71.20;;;;;;5107565;28;20067;-38
2021/07/01 01:43:39;;;;;;;2.53;2.33;;;20.90;71.20;;;;;;5112450;28;20124;-43
2021/07/01 01:46:05;;;;;;;2.30;2.10;;;20.90;71.20;;;;;;5112684;28;20134;-40
2021/07/01 01:48:31;;;;;;;3.17;2.28;;;20.90;71.20;;;;;;5105627;28;20052;-40
2021/07/01 01:50:58;;;;;;;2.70;2.20;;;20.90;71.30;;;;;;5096201;28;20078;-39
2021/07/01 01:53:23;;;;;;;2.78;2.53;;;20.90;71.20;;;;;;5112547;28;20142;-51
2021/07/01 01:55:49;;;;;;;2.85;2.38;;;20.90;71.20;;;;;;5110285;28;20067;-41
2021/07/01 01:58:15;;;;;;;3.85;2.20;;;20.90;71.20;;;;;;5112464;28;20063;-40
2021/07/01 02:00:40;;;;;;;2.72;2.50;;;20.90;71.20;;;;;;5110323;28;20036;-44
2021/07/01 02:03:06;;;;;;;2.78;2.22;;;20.90;71.90;;;;;;5112248;28;20073;-48
2021/07/01 02:05:35;;;;;;;2.30;2.10;;;20.90;71.20;;;;;;5099451;28;20533;-44
2021/07/01 02:08:01;;;;;;;2.63;2.00;;;20.80;71.20;;;;;;5108847;28;20373;-40
2021/07/01 02:10:29;;;;;;;4.38;2.40;;;20.90;71.20;;;;;;5101860;28;20044;-38
2021/07/01 02:12:55;;;;;;;2.80;2.33;;;20.80;71.80;;;;;;5091865;28;20052;-41
2021/07/01 02:15:24;;;;;;;2.50;2.30;;;20.90;71.20;;;;;;5102562;28;20058;-51
2021/07/01 02:17:51;;;;;;;2.78;2.40;;;20.90;71.20;;;;;;5112253;28;20047;-51
2021/07/01 02:20:19;;;;;;;3.60;2.95;;;20.90;71.20;;;;;;5101676;28;20494;-49
2021/07/01 02:22:46;;;;;;;2.63;2.38;;;20.90;71.20;;;;;;5098937;28;20047;-39
2021/07/01 02:25:13;;;;;;;2.70;2.33;;;20.90;71.20;;;;;;5112162;28;20047;-41
2021/07/01 02:27:40;;;;;;;3.30;2.50;;;20.90;71.20;;;;;;5105904;28;20036;-43
2021/07/01 02:30:08;;;;;;;2.95;2.25;;;20.90;71.30;;;;;;5099595;28;20052;-43
2021/07/01 02:32:35;;;;;;;2.92;2.25;;;20.90;71.20;;;;;;5110399;28;20132;-46
2021/07/01 02:35:02;;;;;;;3.08;2.67;;;20.90;71.20;;;;;;5104366;28;20070;-41
2021/07/01 02:37:28;;;;;;;3.42;2.28;;;20.90;71.20;;;;;;5099289;28;20050;-41
2021/07/01 02:39:54;;;;;;;3.88;2.47;;;20.90;71.20;;;;;;5106798;28;20052;-42
2021/07/01 02:42:20;;;;;;;2.33;2.00;;;20.90;71.30;;;;;;5092494;28;20499;-47
2021/07/01 02:44:45;;;;;;;2.65;2.10;;;20.90;71.20;;;;;;5096320;28;20053;-38
2021/07/01 02:47:11;;;;;;;2.70;2.28;;;20.80;71.20;;;;;;5112017;28;20096;-42
2021/07/01 02:49:37;;;;;;;2.90;2.30;;;20.90;71.20;;;;;;5107472;28;20475;-39
2021/07/01 02:52:03;;;;;;;3.10;2.65;;;20.90;71.30;;;;;;5091588;28;20649;-40
2021/07/01 02:54:29;;;;;;;2.97;2.67;;;20.90;71.30;;;;;;5096242;28;20056;-49
2021/07/01 02:56:55;;;;;;;3.60;2.60;;;20.90;71.30;;;;;;5111340;28;20048;-44
2021/07/01 02:59:20;;;;;;;3.47;2.00;;;20.90;71.30;;;;;;5111947;28;20039;-43
2021/07/01 03:01:50;;;;;;;3.17;2.22;;;20.90;71.30;;;;;;5101974;28;20039;-40
2021/07/01 03:04:16;;;;;;;2.55;2.35;;;20.90;71.30;;;;;;5109965;28;20052;-41
2021/07/01 03:06:43;;;;;;;3.22;2.60;;;20.90;71.30;;;;;;5109819;28;20047;-41
2021/07/01 03:09:10;;;;;;;2.65;2.13;;;20.90;71.30;;;;;;5110845;28;20476;-48
2021/07/01 03:11:37;;;;;;;2.85;2.40;;;20.90;71.30;;;;;;5113303;28;20065;-48
2021/07/01 03:14:04;;;;;;;3.33;2.40;;;20.90;71.30;;;;;;5114753;28;20062;-42
2021/07/01 03:16:43;;;;;;;4.47;2.58;;;20.90;71.40;;;;;;5115575;28;20150;-40
2021/07/01 03:19:09;;;;;;;3.20;2.42;;;20.90;71.40;;;;;;5113583;28;20147;-40
2021/07/01 03:21:35;;;;;;;3.90;2.53;;;20.90;71.50;;;;;;5104562;28;20108;-39
2021/07/01 03:24:00;;;;;;;3.50;2.63;;;20.80;71.50;;;;;;5100732;28;20044;-48
2021/07/01 03:26:27;;;;;;;2.72;2.40;;;20.90;71.60;;;;;;5100695;28;20048;-50
2021/07/01 03:28:52;;;;;;;4.28;2.75;;;20.90;71.70;;;;;;5113414;28;20051;-44
2021/07/01 03:31:18;;;;;;;3.00;2.35;;;20.90;71.70;;;;;;5115497;28;20057;-51
2021/07/01 03:33:44;;;;;;;2.55;2.35;;;20.80;71.80;;;;;;5103818;28;20102;-44
2021/07/01 03:36:10;;;;;;;3.00;2.33;;;20.80;71.80;;;;;;5110973;28;20155;-40
2021/07/01 03:38:36;;;;;;;3.75;2.90;;;20.80;71.80;;;;;;5097534;28;20424;-40
2021/07/01 03:41:04;;;;;;;3.22;2.70;;;20.80;71.80;;;;;;5109291;28;20496;-40
2021/07/01 03:43:31;;;;;;;3.30;2.90;;;20.80;71.90;;;;;;5095692;28;20109;-42
2021/07/01 03:45:56;;;;;;;3.30;2.60;;;20.80;71.90;;;;;;5094987;28;20048;-41
2021/07/01 03:48:22;;;;;;;3.03;2.47;;;20.80;71.80;;;;;;5108214;28;20115;-45
2021/07/01 03:50:48;;;;;;;2.95;2.60;;;20.80;71.80;;;;;;5095818;28;20048;-45
2021/07/01 03:53:13;;;;;;;2.65;2.42;;;20.80;71.80;;;;;;5094782;28;20054;-47
2021/07/01 03:55:39;;;;;;;2.65;2.45;;;20.80;71.80;;;;;;5106611;28;20051;-47
2021/07/01 03:58:05;;;;;;;2.95;2.65;;;20.80;71.70;;;;;;5106837;28;20054;-47
2021/07/01 04:00:32;;;;;;;3.20;2.63;;;20.80;71.70;;;;;;5109994;28;20448;-44
2021/07/01 04:02:59;;;;;;;3.00;2.30;;;20.80;71.70;;;;;;5114724;28;20071;-44
2021/07/01 04:05:25;;;;;;;3.03;2.47;;;20.80;71.60;;;;;;5114072;28;20403;-44
2021/07/01 04:07:51;;;;;;;2.95;2.50;;;20.80;71.60;;;;;;5112682;28;20417;-47
2021/07/01 04:10:18;;;;;;;3.83;2.90;;;20.70;71.50;;;;;;5095624;28;20051;-46
2021/07/01 04:12:45;;;;;;;3.33;2.63;;;20.80;71.50;;;;;;5093949;28;20315;-47
2021/07/01 04:15:11;;;;;;;3.65;2.70;;;20.90;71.60;;;;;;5110432;28;20056;-44
2021/07/01 04:17:37;;;;;;;3.70;2.67;;;20.80;71.50;;;;;;5114165;28;20518;-47
2021/07/01 04:20:05;;;;;;;3.70;2.70;;;20.80;71.50;;;;;;5114543;28;20051;-45
2021/07/01 04:22:31;;;;;;;2.63;2.42;;;20.80;71.50;;;;;;5112463;28;20549;-46
2021/07/01 04:24:57;;;;;;;2.75;2.40;;;20.80;71.50;;;;;;5113913;28;20491;-44
2021/07/01 04:27:23;;;;;;;3.75;2.50;;;20.80;71.50;;;;;;5113943;28;20055;-45
2021/07/01 04:29:48;;;;;;;3.42;2.72;;;20.80;71.40;;;;;;5108185;28;20044;-41
2021/07/01 04:32:14;;;;;;;2.85;2.55;;;20.80;71.40;;;;;;5094678;28;20071;-46
2021/07/01 04:34:40;;;;;;;3.67;2.78;;;20.80;71.40;;;;;;5093938;28;20151;-42
2021/07/01 04:37:06;;;;;;;3.10;2.30;;;20.80;71.40;;;;;;5093249;28;20054;-44
2021/07/01 04:39:32;;;;;;;2.60;2.40;;;20.80;71.40;;;;;;5106328;28;20047;-44
2021/07/01 04:41:59;;;;;;;3.70;2.90;;;20.80;71.40;;;;;;5111363;28;20502;-44
2021/07/01 04:44:25;;;;;;;3.47;2.90;;;20.80;71.40;;;;;;5112217;28;20047;-45
2021/07/01 04:46:50;;;;;;;3.33;2.75;;;20.80;71.40;;;;;;5099174;28;20158;-45
2021/07/01 04:49:16;;;;;;;3.65;2.70;;;20.80;71.40;;;;;;5093192;28;20537;-42
2021/07/01 04:51:42;;;;;;;3.05;2.58;;;20.80;71.40;;;;;;5092990;28;20526;-44
2021/07/01 04:54:08;;;;;;;2.50;2.20;;;20.80;71.40;;;;;;5094107;28;20044;-46
2021/07/01 04:56:43;;;;;;;2.60;2.20;;;20.80;71.40;;;;;;5112829;28;20055;-43
2021/07/01 04:59:20;;;;;;;3.20;2.65;;;20.80;71.40;;;;;;5112725;28;20047;-42
2021/07/01 05:01:46;;;;;;;2.78;2.55;;;20.80;71.40;;;;;;5097796;28;20043;-42
2021/07/01 05:04:13;;;;;;;3.38;2.58;;;20.80;71.40;;;;;;5111247;28;20043;-46
2021/07/01 05:06:41;;;;;;;3.15;2.80;;;20.80;71.40;;;;;;5097844;28;20062;-49
2021/07/01 05:09:08;;;;;;;3.63;2.65;;;20.70;71.30;;;;;;5092707;28;20074;-46
2021/07/01 05:11:35;;;;;;;3.75;2.85;;;20.80;71.30;;;;;;5093963;28;20043;-47
2021/07/01 05:14:01;;;;;;;3.55;2.80;;;20.80;71.30;;;;;;5110814;28;20035;-44
2021/07/01 05:16:28;;;;;;;4.25;2.67;;;20.80;71.30;;;;;;5112978;28;20061;-43
2021/07/01 05:18:55;;;;;;;4.05;2.92;;;20.80;71.40;;;;;;5097558;28;20567;-45
2021/07/01 05:21:20;;;;;;;2.95;2.65;;;20.80;71.30;;;;;;5092611;28;20476;-44
2021/07/01 05:23:46;;;;;;;4.15;3.00;;;20.80;71.30;;;;;;5106013;28;20054;-49
2021/07/01 05:26:12;;;;;;;2.75;2.40;;;20.80;71.30;;;;;;5111434;28;20048;-51
2021/07/01 05:28:38;;;;;;;3.30;2.55;;;20.80;71.30;;;;;;5112522;28;20063;-46
2021/07/01 05:31:03;;;;;;;2.95;2.65;;;20.80;71.30;;;;;;5111226;28;20055;-45
2021/07/01 05:33:29;;;;;;;5.85;2.92;;;20.80;71.30;;;;;;5112663;28;20082;-51
2021/07/01 05:35:55;;;;;;;3.20;2.88;;;20.80;71.30;;;;;;5108870;28;20044;-46
2021/07/01 05:38:21;;;;;;;2.88;2.40;;;20.80;71.30;;;;;;5103811;28;20059;-43
2021/07/01 05:40:47;;;;;;;4.07;3.30;;;20.80;71.30;;;;;;5113223;28;20051;-47
2021/07/01 05:43:13;;;;;;;4.03;3.00;;;20.80;71.30;;;;;;5107982;28;20048;-47
2021/07/01 05:45:39;;;;;;;3.10;2.78;;;20.70;71.30;;;;;;5093218;28;20476;-49
2021/07/01 05:48:06;;;;;;;3.05;2.45;;;20.80;71.30;;;;;;5092673;28;20550;-46
2021/07/01 05:50:35;;;;;;;2.70;2.30;;;20.80;71.30;;;;;;5100343;28;20074;-45
2021/07/01 05:53:06;;;;;;;3.03;2.72;;;20.70;71.20;;;;;;5112720;28;20043;-42
2021/07/01 05:55:31;;;;;;;3.30;2.78;;;20.80;71.30;;;;;;5092516;28;20055;-42
2021/07/01 05:57:57;;;;;;;3.60;3.30;;;20.80;71.30;;;;;;5093338;28;20044;-40
2021/07/01 06:00:24;;;;;;;3.85;3.03;;;20.70;71.20;;;;;;5102086;28;20096;-44
2021/07/01 06:02:50;;;;;;;3.13;2.78;;;20.80;71.30;;;;;;5107437;28;20097;-40
2021/07/01 06:05:17;;;;;;;3.40;2.92;;;20.80;71.30;;;;;;5091927;28;20434;-47
2021/07/01 06:07:48;;;;;;;3.13;2.75;;;20.80;71.30;;;;;;5098445;28;20377;-41
2021/07/01 06:10:17;;;;;;;3.13;2.75;;;20.80;71.30;;;;;;5112119;28;20051;-41
2021/07/01 06:12:43;;;;;;;3.20;2.63;;;20.80;71.30;;;;;;5112447;28;20092;-41
2021/07/01 06:15:09;;;;;;;3.20;2.90;;;20.80;71.30;;;;;;5092780;28;20059;-45
2021/07/01 06:17:35;;;;;;;3.85;2.72;;;20.80;71.30;;;;;;5092657;28;20067;-42
2021/07/01 06:20:06;;;;;;;3.88;3.10;;;20.80;71.30;;;;;;5091575;28;20046;-45
2021/07/01 06:22:32;;;;;;;3.10;2.55;;;20.80;71.30;;;;;;5091811;28;20048;-44
2021/07/01 06:24:58;;;;;;;4.78;3.10;;;20.80;71.30;;;;;;5091960;28;20059;-45
2021/07/01 06:29:55;;;;;;;4.03;3.42;;;20.80;71.30;;;;;;5102569;28;20131;-47
2021/07/01 06:32:21;;;;;;;3.33;2.90;;;20.80;71.30;;;;;;5091098;28;20043;-44
2021/07/01 06:34:46;;;;;;;3.55;2.88;;;20.80;71.30;;;;;;5091377;28;20516;-44
2021/07/01 06:37:14;;;;;;;3.70;3.10;;;20.80;71.30;;;;;;5095266;28;20050;-41
2021/07/01 06:39:43;;;;;;;4.35;2.88;;;20.80;71.30;;;;;;5099465;28;20044;-45
2021/07/01 06:42:10;;;;;;;3.47;2.97;;;20.80;72.00;;;;;;5106484;28;20044;-48
2021/07/01 06:44:37;;;;;;;3.30;2.72;;;20.80;71.40;;;;;;5107890;28;20079;-47
2021/07/01 06:47:04;;;;;;;4.63;3.25;;;20.80;71.40;;;;;;5102722;28;20054;-47
2021/07/01 06:49:31;;;;;;;5.03;3.10;;;20.70;71.30;;;;;;5113980;28;20040;-41
2021/07/01 06:51:59;;;;;;;5.05;3.30;;;20.80;71.50;;;;;;5116024;28;20043;-40
2021/07/01 06:54:25;;;;;;;4.15;3.25;;;20.80;71.50;;;;;;5098204;28;20435;-40
2021/07/01 06:56:52;;;;;;;3.33;3.03;;;20.80;71.50;;;;;;5106486;28;20118;-45
2021/07/01 06:59:19;;;;;;;3.75;3.35;;;20.70;71.50;;;;;;5114237;28;20044;-41
2021/07/01 07:01:45;;;;;;;4.72;3.58;;;20.80;71.50;;;;;;5115233;28;20063;-39
2021/07/01 07:04:11;;;;;;;5.13;3.70;;;20.80;71.50;;;;;;5115125;28;20047;-45
2021/07/01 07:06:38;;;;;;;4.18;3.05;;;20.80;71.50;;;;;;5113973;28;20036;-50
2021/07/01 07:09:04;;;;;;;4.85;3.67;;;20.70;71.50;;;;;;5106675;28;20051;-40
2021/07/01 07:11:33;;;;;;;4.75;3.40;;;20.80;71.50;;;;;;5096222;28;20522;-43
2021/07/01 07:13:58;;;;;;;4.72;3.47;;;20.80;71.50;;;;;;5095102;28;20062;-39
2021/07/01 07:16:25;;;;;;;4.32;3.78;;;20.80;71.50;;;;;;5095006;28;20127;-40
2021/07/01 07:18:52;;;;;;;4.05;3.13;;;20.80;71.50;;;;;;5094718;28;20048;-42
2021/07/01 07:21:19;;;;;;;5.07;4.00;;;20.80;71.50;;;;;;5110667;28;20044;-40
2021/07/01 07:23:53;;;;;;;3.95;3.55;;;20.80;72.20;;;;;;5101238;28;20468;-48
2021/07/01 07:26:22;;;;;;;4.53;3.43;;;20.70;71.40;;;;;;5094398;28;20044;-43
2021/07/01 07:28:52;;;;;;;4.47;3.83;;;20.80;71.50;;;;;;5080064;28;20456;-40
2021/07/01 07:31:24;;;;;;;5.03;3.80;;;20.80;71.50;;;;;;5113258;28;20066;-43
2021/07/01 07:33:55;;;;;;;5.50;4.28;;;20.80;71.60;;;;;;5113187;28;20048;-53
2021/07/01 07:36:23;;;;;;;4.45;3.10;;;20.70;71.50;;;;;;5112843;28;20039;-42
2021/07/01 07:38:50;;;;;;;5.50;3.90;;;20.80;71.60;;;;;;5114951;28;20043;-49
2021/07/01 07:41:17;;;;;;;4.63;3.55;;;20.80;71.60;;;;;;5110847;28;20044;-46
2021/07/01 07:43:43;;;;;;;4.70;3.50;;;20.80;71.60;;;;;;5094482;28;20083;-49
2021/07/01 07:46:10;;;;;;;4.68;3.75;;;20.80;71.60;;;;;;5094561;28;20082;-45
2021/07/01 07:48:36;;;;;;;5.70;3.92;;;20.80;71.60;;;;;;5094699;28;20048;-43
2021/07/01 07:51:02;;;;;;;5.15;3.63;;;20.80;71.60;;;;;;5094185;28;20043;-45
2021/07/01 07:53:33;;;;;;;4.47;3.75;;;20.80;71.60;;;;;;5095754;28;20070;-47
2021/07/01 07:56:02;;;;;;;4.88;4.10;;;20.80;71.60;;;;;;5104747;28;20051;-50
2021/07/01 07:58:31;;;;;;;4.55;3.55;;;20.80;71.60;;;;;;5114336;28;20051;-48
2021/07/01 08:00:58;;;;;;;5.75;3.90;;;20.80;71.60;;;;;;5114961;28;20043;-47
2021/07/01 08:03:24;;;;;;;5.25;3.80;;;20.80;71.60;;;;;;5113214;28;20468;-50
2021/07/01 08:05:51;;;;;;;4.38;3.78;;;20.80;71.60;;;;;;5114828;28;20054;-46
2021/07/01 08:08:17;;;;;;;4.18;3.75;;;20.80;71.60;;;;;;5115500;28;20050;-46
2021/07/01 08:10:44;;;;;;;4.50;4.05;;;20.80;71.60;;;;;;5115232;28;20050;-49
2021/07/01 08:13:10;;;;;;;5.65;3.75;;;20.80;71.60;;;;;;5113227;28;20044;-44
2021/07/01 08:15:39;;;;;;;4.03;3.63;;;20.80;71.60;;;;;;5114449;28;20051;-45
2021/07/01 08:18:07;;;;;;;4.63;3.55;;;20.80;71.60;;;;;;5114535;28;20407;-40
2021/07/01 08:20:33;;;;;;;6.03;3.90;;;20.70;71.50;;;;;;5114283;28;20127;-48
2021/07/01 08:23:00;;;;;;;3.80;3.40;;;20.80;71.60;;;;;;5114404;28;20065;-44
2021/07/01 08:25:27;;;;;;;4.45;3.85;;;20.80;71.50;;;;;;5112366;28;20054;-46
2021/07/01 08:27:54;;;;;;;4.75;3.38;;;20.80;71.50;;;;;;5114297;28;20032;-47
2021/07/01 08:30:25;;;;;;;4.32;3.67;;;20.80;71.50;;;;;;5114079;28;20508;-45
2021/07/01 08:32:57;;;;;;;4.13;3.42;;;20.80;71.50;;;;;;5114227;28;20103;-44
2021/07/01 08:35:26;;;;;;;5.00;3.90;;;20.80;71.50;;;;;;5112283;28;20067;-46
2021/07/01 08:37:56;;;;;;;4.55;3.55;;;20.80;71.50;;;;;;5096136;28;20494;-48
2021/07/01 08:40:32;;;;;;;4.22;3.83;;;20.80;71.50;;;;;;5093432;28;20403;-46
2021/07/01 08:43:00;;;;;;;4.20;3.70;;;20.70;71.40;;;;;;5093389;28;20504;-45
2021/07/01 08:45:41;;;;;;;4.97;3.83;;;20.80;71.50;;;;;;5094464;28;20151;-45
2021/07/01 08:48:18;;;;;;;6.20;3.95;;;20.80;71.50;;;;;;5093403;28;20074;-40
2021/07/01 08:50:55;;;;;;;4.25;3.83;;;20.80;71.50;;;;;;5093350;28;20048;-45
2021/07/01 08:53:55;;;;;;;4.38;3.60;;;20.80;71.50;;;;;;5092701;28;20052;-41
2021/07/01 08:56:21;;;;;;;5.00;4.03;;;20.70;71.40;;;;;;5094221;28;20174;-40
2021/07/01 08:58:47;;;;;;;4.78;3.78;;;20.80;71.50;;;;;;5097748;28;20101;-39
2021/07/01 09:01:18;;;;;;;5.13;3.88;;;20.80;71.50;;;;;;5113555;28;20047;-50
2021/07/01 09:03:46;;;;;;;5.25;3.50;;;20.80;71.50;;;;;;5113417;28;20067;-39
2021/07/01 09:06:24;;;;;;;3.67;3.20;;;20.80;71.50;;;;;;5111962;28;20055;-40
2021/07/01 09:08:51;;;;;;;3.88;3.45;;;20.80;71.40;;;;;;5111800;28;20043;-50
2021/07/01 09:11:20;;;;;;;4.00;3.60;;;20.80;71.40;;;;;;5113363;28;20075;-50
2021/07/01 09:13:48;;;;;;;4.88;3.53;;;20.80;71.40;;;;;;5113170;28;20058;-42
2021/07/01 09:16:16;;;;;;;5.03;3.88;;;20.80;71.40;;;;;;5112971;28;20407;-49
2021/07/01 09:18:45;;;;;;;4.07;3.50;;;20.80;71.40;;;;;;5111301;28;20082;-48
2021/07/01 09:21:12;;;;;;;4.80;3.72;;;20.80;71.40;;;;;;5112988;28;20043;-48
2021/07/01 09:23:45;;;;;;;3.97;3.50;;;20.80;71.40;;;;;;5112677;28;20093;-48
2021/07/01 09:26:22;;;;;;;4.47;3.97;;;20.80;71.40;;;;;;5113087;28;20063;-46
2021/07/01 09:28:53;;;;;;;4.53;3.85;;;20.80;71.40;;;;;;5111042;28;20368;-46
2021/07/01 09:31:22;;;;;;;4.18;3.75;;;20.80;71.40;;;;;;5113003;28;20063;-50
2021/07/01 09:33:50;;;;;;;5.32;3.90;;;20.80;71.40;;;;;;5112944;28;20062;-50
2021/07/01 09:36:18;;;;;;;4.25;3.78;;;20.80;71.40;;;;;;5112657;28;20560;-44
2021/07/01 09:38:46;;;;;;;4.30;3.88;;;20.80;71.40;;;;;;5110962;28;20044;-43
2021/07/01 09:41:13;;;;;;;3.85;3.45;;;20.80;71.40;;;;;;5112477;28;20040;-47
2021/07/01 09:43:41;;;;;;;4.40;3.75;;;20.80;71.50;;;;;;5112534;28;20050;-49
2021/07/01 09:46:14;;;;;;;4.55;3.53;;;20.80;71.50;;;;;;5112922;28;20051;-50
2021/07/01 09:48:45;;;;;;;4.68;3.63;;;20.80;71.50;;;;;;5110923;28;20043;-49
2021/07/01 09:51:12;;;;;;;4.85;3.88;;;20.80;71.50;;;;;;5112276;28;20568;-50
2021/07/01 09:53:39;;;;;;;4.00;3.60;;;20.80;71.50;;;;;;5112524;28;20051;-48
2021/07/01 09:56:09;;;;;;;4.30;3.67;;;20.80;71.50;;;;;;5109927;28;20044;-49
2021/07/01 09:58:50;;;;;;;4.68;3.90;;;20.80;71.50;;;;;;5112120;28;20050;-51
2021/07/01 10:01:27;;;;;;;4.20;3.33;;;20.80;71.50;;;;;;5092115;28;20093;-46
2021/07/01 10:03:55;;;;;;;4.82;3.50;;;20.90;71.60;;;;;;5091981;28;20124;-44
2021/07/01 10:06:21;;;;;;;3.83;3.40;;;20.80;71.50;;;;;;5092145;28;20047;-43
2021/07/01 10:08:47;;;;;;;4.72;3.42;;;20.80;71.50;;;;;;5092774;28;20108;-40
2021/07/01 10:11:15;;;;;;;4.43;3.75;;;20.80;71.50;;;;;;5091558;28;20063;-51
2021/07/01 10:13:51;;;;;;;4.20;3.65;;;20.80;71.50;;;;;;5092249;28;20118;-47
2021/07/01 10:16:22;;;;;;;5.90;3.90;;;20.80;71.50;;;;;;5091935;28;20473;-48
2021/07/01 10:18:48;;;;;;;4.80;3.50;;;20.80;71.50;;;;;;5093041;28;20394;-39
2021/07/01 10:21:15;;;;;;;4.20;3.63;;;20.80;71.50;;;;;;5091839;28;20131;-45
2021/07/01 10:23:41;;;;;;;4.53;3.78;;;20.80;71.50;;;;;;5092320;28;20415;-45
2021/07/01 10:26:13;;;;;;;4.45;4.05;;;20.90;71.60;;;;;;5092209;28;20048;-42
2021/07/01 10:28:40;;;;;;;5.20;3.95;;;20.80;71.50;;;;;;5093032;28;20516;-48
2021/07/01 10:31:11;;;;;;;4.80;4.03;;;20.80;71.50;;;;;;5092267;28;20070;-45
2021/07/01 10:33:40;;;;;;;4.57;3.47;;;20.80;71.60;;;;;;5092054;28;20044;-42
2021/07/01 10:36:13;;;;;;;4.93;3.53;;;20.80;71.60;;;;;;5091811;28;20131;-47
2021/07/01 10:38:48;;;;;;;4.13;3.72;;;20.80;71.60;;;;;;5093084;28;20040;-51
2021/07/01 10:41:33;;;;;;;4.95;3.85;;;20.90;71.60;;;;;;5091655;28;20048;-46
2021/07/01 10:44:00;;;;;;;4.22;3.70;;;20.90;71.60;;;;;;5091303;28;20162;-49
2021/07/01 10:46:42;;;;;;;4.00;3.60;;;20.80;71.60;;;;;;5091591;28;20055;-45
2021/07/01 10:49:08;;;;;;;4.32;3.70;;;20.90;71.70;;;;;;5092543;28;20048;-42
2021/07/01 10:51:35;;;;;;;4.85;3.50;;;20.90;72.40;;;;;;5091672;28;20054;-41
2021/07/01 10:54:15;;;;;;;4.50;3.40;;;20.80;71.70;;;;;;5109458;28;20043;-49
2021/07/01 10:56:43;;;;;;;4.00;3.60;;;20.90;71.70;;;;;;5111821;28;20121;-48
2021/07/01 10:59:11;;;;;;;5.38;3.80;;;20.90;71.80;;;;;;5111181;28;20046;-51
2021/07/01 11:01:42;;;;;;;3.50;3.20;;;20.90;71.70;;;;;;5108365;28;20083;-48
2021/07/01 11:04:11;;;;;;;4.03;3.58;;;20.90;71.70;;;;;;5091448;28;20492;-48
2021/07/01 11:06:58;;;;;;;3.95;3.33;;;20.90;71.70;;;;;;5091424;28;20044;-49
2021/07/01 11:09:24;;;;;;;4.07;3.63;;;20.90;71.80;;;;;;5091320;28;20044;-48
2021/07/01 11:12:01;;;;;;;4.57;4.13;;;20.90;71.80;;;;;;5092248;28;20040;-47
2021/07/01 11:14:39;;;;;;;4.35;3.50;;;20.90;71.80;;;;;;5090701;28;20098;-47
2021/07/01 11:17:04;;;;;;;4.10;3.38;;;20.80;71.70;;;;;;5091436;28;20044;-43
2021/07/01 11:19:40;;;;;;;5.03;3.60;;;20.90;71.80;;;;;;5091135;28;20044;-50
2021/07/01 11:22:08;;;;;;;3.58;2.97;;;20.90;71.80;;;;;;5092221;28;20048;-50
2021/07/01 11:24:42;;;;;;;4.50;3.92;;;20.90;71.80;;;;;;5091066;28;20059;-48
2021/07/01 11:27:08;;;;;;;5.38;3.80;;;20.90;71.80;;;;;;5091093;28;20553;-47
2021/07/01 11:29:41;;;;;;;4.80;4.07;;;20.90;71.80;;;;;;5090546;28;20044;-46
2021/07/01 11:32:16;;;;;;;4.30;3.65;;;20.90;71.80;;;;;;5092443;28;20427;-46
2021/07/01 11:34:43;;;;;;;4.93;3.88;;;20.90;71.80;;;;;;5094681;28;20039;-48
2021/07/01 11:37:10;;;;;;;4.85;4.10;;;20.90;71.90;;;;;;5094754;28;20051;-46
2021/07/01 11:39:36;;;;;;;3.85;3.45;;;20.90;71.90;;;;;;5095092;28;20054;-47
2021/07/01 11:42:04;;;;;;;3.90;3.50;;;20.90;71.90;;;;;;5094744;28;20076;-48
2021/07/01 11:44:32;;;;;;;4.28;3.75;;;20.90;71.90;;;;;;5095716;28;20048;-51
2021/07/01 11:47:00;;;;;;;4.35;3.88;;;20.90;71.90;;;;;;5094448;28;20040;-49
2021/07/01 11:49:29;;;;;;;4.53;3.75;;;20.90;71.90;;;;;;5094382;28;20055;-48
2021/07/01 11:51:56;;;;;;;4.25;3.78;;;20.90;71.90;;;;;;5094260;28;20123;-50
2021/07/01 11:54:22;;;;;;;4.63;3.50;;;20.90;71.90;;;;;;5077324;28;20409;-51
2021/07/01 11:56:53;;;;;;;3.15;2.85;;;20.90;71.90;;;;;;5094469;28;20480;-48
2021/07/01 11:59:25;;;;;;;4.70;3.95;;;21.00;71.90;;;;;;5094438;28;20392;-51
2021/07/01 12:01:51;;;;;;;4.35;3.72;;;20.90;71.90;;;;;;5093971;28;20488;-48
2021/07/01 12:04:18;;;;;;;4.55;4.00;;;20.90;71.90;;;;;;5095278;28;20100;-48
2021/07/01 12:07:00;;;;;;;5.95;4.00;;;20.90;71.90;;;;;;5094140;28;20067;-51
2021/07/01 12:09:26;;;;;;;4.55;3.88;;;21.00;71.90;;;;;;5093964;28;20052;-49
2021/07/01 12:12:03;;;;;;;4.90;3.92;;;20.90;71.90;;;;;;5094229;28;20079;-50
2021/07/01 12:14:34;;;;;;;4.90;4.40;;;20.90;71.90;;;;;;5095048;28;20050;-49
2021/07/01 12:17:00;;;;;;;4.75;3.90;;;21.00;72.00;;;;;;5093673;28;20078;-50
2021/07/01 12:19:47;;;;;;;5.38;4.18;;;21.00;72.00;;;;;;5094195;28;20507;-48
2021/07/01 12:22:44;;;;;;;6.95;4.65;;;21.00;71.90;;;;;;5094123;28;20044;-48
2021/07/01 12:25:30;;;;;;;5.25;4.53;;;20.90;71.90;;;;;;5095184;28;20078;-51
2021/07/01 12:28:08;;;;;;;4.93;4.10;;;21.00;72.00;;;;;;5080067;28;20569;-50
2021/07/01 12:30:55;;;;;;;4.80;3.90;;;20.90;72.00;;;;;;5094712;28;20059;-49
2021/07/01 12:33:43;;;;;;;4.05;3.53;;;21.00;72.00;;;;;;5093716;28;20108;-47
2021/07/01 12:36:28;;;;;;;4.20;3.72;;;21.00;72.00;;;;;;5094984;28;20119;-49
2021/07/01 12:41:36;;;;;;;4.30;3.40;;;21.00;72.10;;;;;;5094387;28;20055;-50
2021/07/01 12:44:04;;;;;;;4.82;3.22;;;20.90;72.10;;;;;;5094352;28;20040;-50
2021/07/01 12:46:46;;;;;;;4.10;3.50;;;21.00;72.20;;;;;;5095334;28;20063;-43
2021/07/01 12:49:18;;;;;;;3.83;3.42;;;21.00;72.20;;;;;;5093319;28;20513;-46
2021/07/01 12:51:47;;;;;;;4.75;3.67;;;20.90;72.10;;;;;;5093529;28;20055;-46
2021/07/01 12:54:27;;;;;;;3.90;3.50;;;21.00;72.20;;;;;;5093497;28;20040;-46
2021/07/01 12:57:05;;;;;;;3.78;2.80;;;21.00;72.10;;;;;;5093361;28;20044;-46
2021/07/01 12:59:31;;;;;;;3.88;3.35;;;21.00;72.10;;;;;;5093348;28;20051;-49